sensor_id;sensor_type;location;lat;lon;timestamp;P1;durP1;ratioP1;P2;durP2;ratioP2
71914;SDS011;60387;49.994;14.660;2022-11-25T00:01:49;17.93;;;6.90;;
71914;SDS011;60387;49.994;14.660;2022-11-25T00:04:22;20.87;;;6.10;;
71914;SDS011;60387;49.994;14.660;2022-11-25T00:06:56;17.47;;;6.40;;
71914;SDS011;60387;49.994;14.660;2022-11-25T00:09:29;14.77;;;5.30;;
71914;SDS011;60387;49.994;14.660;2022-11-25T00:12:02;17.10;;;5.80;;
71914;SDS011;60387;49.994;14.660;2022-11-25T00:14:35;14.57;;;5.07;;
71914;SDS011;60387;49.994;14.660;2022-11-25T00:17:09;14.73;;;5.47;;
71914;SDS011;60387;49.994;14.660;2022-11-25T00:19:42;17.20;;;5.90;;
71914;SDS011;60387;49.994;14.660;2022-11-25T00:22:15;15.00;;;5.80;;
71914;SDS011;60387;49.994;14.660;2022-11-25T00:24:49;17.20;;;5.75;;
71914;SDS011;60387;49.994;14.660;2022-11-25T00:27:22;17.10;;;6.23;;
71914;SDS011;60387;49.994;14.660;2022-11-25T00:29:55;14.67;;;5.33;;
71914;SDS011;60387;49.994;14.660;2022-11-25T00:32:28;11.80;;;4.50;;
71914;SDS011;60387;49.994;14.660;2022-11-25T00:35:02;15.67;;;5.47;;
71914;SDS011;60387;49.994;14.660;2022-11-25T00:37:35;16.33;;;5.07;;
71914;SDS011;60387;49.994;14.660;2022-11-25T00:40:09;18.60;;;5.73;;
71914;SDS011;60387;49.994;14.660;2022-11-25T00:42:42;15.73;;;6.10;;
71914;SDS011;60387;49.994;14.660;2022-11-25T00:45:16;13.23;;;4.93;;
71914;SDS011;60387;49.994;14.660;2022-11-25T00:47:49;17.00;;;5.47;;
71914;SDS011;60387;49.994;14.660;2022-11-25T00:50:25;12.60;;;5.20;;
71914;SDS011;60387;49.994;14.660;2022-11-25T00:52:58;16.27;;;4.50;;
71914;SDS011;60387;49.994;14.660;2022-11-25T00:55:31;12.97;;;4.77;;
71914;SDS011;60387;49.994;14.660;2022-11-25T00:58:05;12.97;;;4.93;;
71914;SDS011;60387;49.994;14.660;2022-11-25T01:00:38;14.20;;;5.07;;
71914;SDS011;60387;49.994;14.660;2022-11-25T01:03:11;15.83;;;5.40;;
71914;SDS011;60387;49.994;14.660;2022-11-25T01:05:44;14.33;;;4.77;;
71914;SDS011;60387;49.994;14.660;2022-11-25T01:08:18;12.73;;;4.80;;
71914;SDS011;60387;49.994;14.660;2022-11-25T01:11:01;13.00;;;4.70;;
71914;SDS011;60387;49.994;14.660;2022-11-25T01:13:37;14.77;;;4.73;;
71914;SDS011;60387;49.994;14.660;2022-11-25T01:16:11;10.85;;;4.15;;
71914;SDS011;60387;49.994;14.660;2022-11-25T01:18:48;14.40;;;4.25;;
71914;SDS011;60387;49.994;14.660;2022-11-25T01:21:22;13.83;;;4.20;;
71914;SDS011;60387;49.994;14.660;2022-11-25T01:23:57;13.52;;;4.43;;
71914;SDS011;60387;49.994;14.660;2022-11-25T01:26:32;10.45;;;4.05;;
71914;SDS011;60387;49.994;14.660;2022-11-25T01:29:11;14.55;;;4.68;;
71914;SDS011;60387;49.994;14.660;2022-11-25T01:31:46;10.77;;;3.53;;
71914;SDS011;60387;49.994;14.660;2022-11-25T01:34:21;11.93;;;4.40;;
71914;SDS011;60387;49.994;14.660;2022-11-25T01:36:56;10.50;;;4.30;;
71914;SDS011;60387;49.994;14.660;2022-11-25T01:39:30;11.43;;;3.97;;
71914;SDS011;60387;49.994;14.660;2022-11-25T01:42:03;11.30;;;3.87;;
71914;SDS011;60387;49.994;14.660;2022-11-25T01:44:37;11.13;;;4.00;;
71914;SDS011;60387;49.994;14.660;2022-11-25T01:47:11;11.15;;;4.30;;
71914;SDS011;60387;49.994;14.660;2022-11-25T01:49:48;12.30;;;4.20;;
71914;SDS011;60387;49.994;14.660;2022-11-25T01:52:28;10.77;;;3.58;;
71914;SDS011;60387;49.994;14.660;2022-11-25T01:57:47;9.02;;;3.47;;
71914;SDS011;60387;49.994;14.660;2022-11-25T02:00:24;14.13;;;4.07;;
71914;SDS011;60387;49.994;14.660;2022-11-25T02:02:57;12.10;;;3.90;;
71914;SDS011;60387;49.994;14.660;2022-11-25T02:08:10;11.33;;;4.17;;
71914;SDS011;60387;49.994;14.660;2022-11-25T02:10:44;11.75;;;3.53;;
71914;SDS011;60387;49.994;14.660;2022-11-25T02:13:18;11.93;;;3.92;;
71914;SDS011;60387;49.994;14.660;2022-11-25T02:15:53;10.65;;;4.00;;
71914;SDS011;60387;49.994;14.660;2022-11-25T02:18:27;11.33;;;4.33;;
71914;SDS011;60387;49.994;14.660;2022-11-25T02:21:00;13.43;;;4.45;;
71914;SDS011;60387;49.994;14.660;2022-11-25T02:23:36;10.50;;;3.80;;
71914;SDS011;60387;49.994;14.660;2022-11-25T02:26:10;11.87;;;3.83;;
71914;SDS011;60387;49.994;14.660;2022-11-25T02:28:44;13.45;;;3.85;;
71914;SDS011;60387;49.994;14.660;2022-11-25T02:31:22;9.67;;;3.60;;
71914;SDS011;60387;49.994;14.660;2022-11-25T02:33:56;11.82;;;3.65;;
71914;SDS011;60387;49.994;14.660;2022-11-25T02:36:29;14.43;;;4.60;;
71914;SDS011;60387;49.994;14.660;2022-11-25T02:39:02;12.37;;;3.80;;
71914;SDS011;60387;49.994;14.660;2022-11-25T02:41:38;11.48;;;3.58;;
71914;SDS011;60387;49.994;14.660;2022-11-25T02:44:14;12.45;;;3.95;;
71914;SDS011;60387;49.994;14.660;2022-11-25T02:46:48;13.10;;;3.70;;
71914;SDS011;60387;49.994;14.660;2022-11-25T02:49:21;11.63;;;4.13;;
71914;SDS011;60387;49.994;14.660;2022-11-25T02:51:54;8.80;;;2.80;;
71914;SDS011;60387;49.994;14.660;2022-11-25T02:54:27;11.43;;;3.60;;
71914;SDS011;60387;49.994;14.660;2022-11-25T02:57:01;12.80;;;4.03;;
71914;SDS011;60387;49.994;14.660;2022-11-25T02:59:34;10.50;;;3.90;;
71914;SDS011;60387;49.994;14.660;2022-11-25T03:02:07;14.80;;;3.63;;
71914;SDS011;60387;49.994;14.660;2022-11-25T03:04:40;16.70;;;3.67;;
71914;SDS011;60387;49.994;14.660;2022-11-25T03:07:14;10.87;;;3.40;;
71914;SDS011;60387;49.994;14.660;2022-11-25T03:09:47;10.73;;;3.50;;
71914;SDS011;60387;49.994;14.660;2022-11-25T03:12:20;11.40;;;3.70;;
71914;SDS011;60387;49.994;14.660;2022-11-25T03:14:53;10.17;;;2.73;;
71914;SDS011;60387;49.994;14.660;2022-11-25T03:17:27;10.93;;;3.70;;
71914;SDS011;60387;49.994;14.660;2022-11-25T03:20:00;11.63;;;3.37;;
71914;SDS011;60387;49.994;14.660;2022-11-25T03:22:34;12.00;;;3.17;;
71914;SDS011;60387;49.994;14.660;2022-11-25T03:25:08;9.80;;;3.10;;
71914;SDS011;60387;49.994;14.660;2022-11-25T03:27:42;11.10;;;3.60;;
71914;SDS011;60387;49.994;14.660;2022-11-25T03:30:17;10.75;;;3.60;;
71914;SDS011;60387;49.994;14.660;2022-11-25T03:32:52;9.85;;;3.50;;
71914;SDS011;60387;49.994;14.660;2022-11-25T03:35:26;12.07;;;3.97;;
71914;SDS011;60387;49.994;14.660;2022-11-25T03:37:59;18.00;;;3.80;;
71914;SDS011;60387;49.994;14.660;2022-11-25T03:40:32;11.97;;;4.33;;
71914;SDS011;60387;49.994;14.660;2022-11-25T03:43:06;12.13;;;4.20;;
71914;SDS011;60387;49.994;14.660;2022-11-25T03:45:39;12.07;;;4.13;;
71914;SDS011;60387;49.994;14.660;2022-11-25T03:48:12;12.57;;;4.30;;
71914;SDS011;60387;49.994;14.660;2022-11-25T03:50:46;11.87;;;4.03;;
71914;SDS011;60387;49.994;14.660;2022-11-25T03:53:20;11.27;;;3.90;;
71914;SDS011;60387;49.994;14.660;2022-11-25T03:55:53;13.07;;;4.20;;
71914;SDS011;60387;49.994;14.660;2022-11-25T03:58:27;12.43;;;4.27;;
71914;SDS011;60387;49.994;14.660;2022-11-25T04:01:00;14.57;;;4.13;;
71914;SDS011;60387;49.994;14.660;2022-11-25T04:03:34;12.23;;;4.13;;
71914;SDS011;60387;49.994;14.660;2022-11-25T04:06:08;11.93;;;4.23;;
71914;SDS011;60387;49.994;14.660;2022-11-25T04:08:41;10.70;;;4.40;;
71914;SDS011;60387;49.994;14.660;2022-11-25T04:11:15;16.80;;;4.32;;
71914;SDS011;60387;49.994;14.660;2022-11-25T04:13:48;13.33;;;4.13;;
71914;SDS011;60387;49.994;14.660;2022-11-25T04:16:22;14.50;;;4.97;;
71914;SDS011;60387;49.994;14.660;2022-11-25T04:18:58;13.05;;;4.32;;
71914;SDS011;60387;49.994;14.660;2022-11-25T04:21:31;12.87;;;4.23;;
71914;SDS011;60387;49.994;14.660;2022-11-25T04:24:05;13.63;;;4.33;;
71914;SDS011;60387;49.994;14.660;2022-11-25T04:26:38;15.82;;;5.03;;
71914;SDS011;60387;49.994;14.660;2022-11-25T04:29:12;14.82;;;5.22;;
71914;SDS011;60387;49.994;14.660;2022-11-25T04:31:45;14.53;;;5.10;;
71914;SDS011;60387;49.994;14.660;2022-11-25T04:34:18;16.37;;;5.60;;
71914;SDS011;60387;49.994;14.660;2022-11-25T04:36:52;17.03;;;5.20;;
71914;SDS011;60387;49.994;14.660;2022-11-25T04:39:25;17.10;;;5.10;;
71914;SDS011;60387;49.994;14.660;2022-11-25T04:41:58;15.10;;;4.93;;
71914;SDS011;60387;49.994;14.660;2022-11-25T04:44:31;12.63;;;4.67;;
71914;SDS011;60387;49.994;14.660;2022-11-25T04:47:04;16.67;;;5.43;;
71914;SDS011;60387;49.994;14.660;2022-11-25T04:49:38;14.13;;;4.50;;
71914;SDS011;60387;49.994;14.660;2022-11-25T04:52:11;13.80;;;4.60;;
71914;SDS011;60387;49.994;14.660;2022-11-25T04:54:44;13.00;;;4.90;;
71914;SDS011;60387;49.994;14.660;2022-11-25T04:57:17;13.13;;;4.30;;
71914;SDS011;60387;49.994;14.660;2022-11-25T04:59:51;15.23;;;4.77;;
71914;SDS011;60387;49.994;14.660;2022-11-25T05:02:26;14.03;;;4.40;;
71914;SDS011;60387;49.994;14.660;2022-11-25T05:05:00;13.82;;;4.70;;
71914;SDS011;60387;49.994;14.660;2022-11-25T05:07:33;14.03;;;4.53;;
71914;SDS011;60387;49.994;14.660;2022-11-25T05:10:07;12.57;;;4.63;;
71914;SDS011;60387;49.994;14.660;2022-11-25T05:12:41;13.20;;;4.30;;
71914;SDS011;60387;49.994;14.660;2022-11-25T05:15:14;15.17;;;4.63;;
71914;SDS011;60387;49.994;14.660;2022-11-25T05:17:47;13.30;;;4.50;;
71914;SDS011;60387;49.994;14.660;2022-11-25T05:20:20;17.57;;;5.37;;
71914;SDS011;60387;49.994;14.660;2022-11-25T05:22:54;15.73;;;4.80;;
71914;SDS011;60387;49.994;14.660;2022-11-25T05:25:27;13.13;;;5.10;;
71914;SDS011;60387;49.994;14.660;2022-11-25T05:28:00;14.43;;;4.70;;
71914;SDS011;60387;49.994;14.660;2022-11-25T05:30:34;14.15;;;5.03;;
71914;SDS011;60387;49.994;14.660;2022-11-25T05:33:07;16.87;;;5.50;;
71914;SDS011;60387;49.994;14.660;2022-11-25T05:35:40;18.27;;;7.00;;
71914;SDS011;60387;49.994;14.660;2022-11-25T05:38:13;24.27;;;8.37;;
71914;SDS011;60387;49.994;14.660;2022-11-25T05:40:47;21.53;;;5.53;;
71914;SDS011;60387;49.994;14.660;2022-11-25T05:43:20;15.63;;;5.13;;
71914;SDS011;60387;49.994;14.660;2022-11-25T05:45:53;28.40;;;10.93;;
71914;SDS011;60387;49.994;14.660;2022-11-25T05:48:26;66.27;;;24.47;;
71914;SDS011;60387;49.994;14.660;2022-11-25T05:51:00;27.03;;;11.33;;
71914;SDS011;60387;49.994;14.660;2022-11-25T05:53:34;15.38;;;5.22;;
71914;SDS011;60387;49.994;14.660;2022-11-25T05:56:08;17.33;;;5.00;;
71914;SDS011;60387;49.994;14.660;2022-11-25T05:58:42;15.80;;;5.82;;
71914;SDS011;60387;49.994;14.660;2022-11-25T06:01:15;23.83;;;10.15;;
71914;SDS011;60387;49.994;14.660;2022-11-25T06:03:49;38.83;;;16.58;;
71914;SDS011;60387;49.994;14.660;2022-11-25T06:06:22;25.30;;;12.38;;
71914;SDS011;60387;49.994;14.660;2022-11-25T06:08:55;29.95;;;13.10;;
71914;SDS011;60387;49.994;14.660;2022-11-25T06:11:29;24.30;;;10.63;;
71914;SDS011;60387;49.994;14.660;2022-11-25T06:14:02;24.80;;;10.37;;
71914;SDS011;60387;49.994;14.660;2022-11-25T06:16:35;20.07;;;8.80;;
71914;SDS011;60387;49.994;14.660;2022-11-25T06:19:09;29.13;;;11.97;;
71914;SDS011;60387;49.994;14.660;2022-11-25T06:21:42;27.00;;;10.70;;
71914;SDS011;60387;49.994;14.660;2022-11-25T06:24:15;39.97;;;20.87;;
71914;SDS011;60387;49.994;14.660;2022-11-25T06:26:48;31.70;;;14.60;;
71914;SDS011;60387;49.994;14.660;2022-11-25T06:29:21;19.33;;;7.00;;
71914;SDS011;60387;49.994;14.660;2022-11-25T06:31:55;21.47;;;8.40;;
71914;SDS011;60387;49.994;14.660;2022-11-25T06:34:28;22.57;;;8.53;;
71914;SDS011;60387;49.994;14.660;2022-11-25T06:37:01;28.43;;;11.50;;
71914;SDS011;60387;49.994;14.660;2022-11-25T06:39:34;22.73;;;11.20;;
71914;SDS011;60387;49.994;14.660;2022-11-25T06:42:08;27.33;;;12.07;;
71914;SDS011;60387;49.994;14.660;2022-11-25T06:44:41;20.60;;;7.97;;
71914;SDS011;60387;49.994;14.660;2022-11-25T06:47:14;19.17;;;6.77;;
71914;SDS011;60387;49.994;14.660;2022-11-25T06:49:48;16.03;;;7.00;;
71914;SDS011;60387;49.994;14.660;2022-11-25T06:52:22;19.50;;;8.07;;
71914;SDS011;60387;49.994;14.660;2022-11-25T06:54:55;37.73;;;14.57;;
71914;SDS011;60387;49.994;14.660;2022-11-25T06:57:28;35.43;;;12.93;;
71914;SDS011;60387;49.994;14.660;2022-11-25T07:00:02;24.20;;;10.17;;
71914;SDS011;60387;49.994;14.660;2022-11-25T07:02:36;28.60;;;12.52;;
71914;SDS011;60387;49.994;14.660;2022-11-25T07:05:09;26.13;;;11.23;;
71914;SDS011;60387;49.994;14.660;2022-11-25T07:07:42;19.37;;;7.50;;
71914;SDS011;60387;49.994;14.660;2022-11-25T07:10:16;17.70;;;6.83;;
71914;SDS011;60387;49.994;14.660;2022-11-25T07:12:49;29.20;;;12.10;;
71914;SDS011;60387;49.994;14.660;2022-11-25T07:15:22;33.20;;;15.57;;
71914;SDS011;60387;49.994;14.660;2022-11-25T07:17:55;31.20;;;13.33;;
71914;SDS011;60387;49.994;14.660;2022-11-25T07:20:29;27.57;;;9.90;;
71914;SDS011;60387;49.994;14.660;2022-11-25T07:23:02;46.83;;;20.80;;
71914;SDS011;60387;49.994;14.660;2022-11-25T07:25:35;38.17;;;15.70;;
71914;SDS011;60387;49.994;14.660;2022-11-25T07:28:08;24.83;;;10.20;;
71914;SDS011;60387;49.994;14.660;2022-11-25T07:30:42;22.67;;;8.30;;
71914;SDS011;60387;49.994;14.660;2022-11-25T07:33:15;25.67;;;9.50;;
71914;SDS011;60387;49.994;14.660;2022-11-25T07:35:48;27.60;;;10.50;;
71914;SDS011;60387;49.994;14.660;2022-11-25T07:38:21;26.33;;;9.97;;
71914;SDS011;60387;49.994;14.660;2022-11-25T07:40:55;22.07;;;9.67;;
71914;SDS011;60387;49.994;14.660;2022-11-25T07:43:28;28.97;;;11.97;;
71914;SDS011;60387;49.994;14.660;2022-11-25T07:46:11;24.27;;;8.70;;
71914;SDS011;60387;49.994;14.660;2022-11-25T07:48:52;17.98;;;7.53;;
71914;SDS011;60387;49.994;14.660;2022-11-25T07:54:01;17.92;;;6.68;;
71914;SDS011;60387;49.994;14.660;2022-11-25T07:56:37;18.90;;;7.25;;
71914;SDS011;60387;49.994;14.660;2022-11-25T07:59:14;16.83;;;5.88;;
71914;SDS011;60387;49.994;14.660;2022-11-25T08:01:49;20.15;;;8.38;;
71914;SDS011;60387;49.994;14.660;2022-11-25T08:04:24;15.77;;;6.30;;
71914;SDS011;60387;49.994;14.660;2022-11-25T08:06:57;13.98;;;5.78;;
71914;SDS011;60387;49.994;14.660;2022-11-25T08:09:30;16.17;;;6.30;;
71914;SDS011;60387;49.994;14.660;2022-11-25T08:12:03;20.47;;;6.20;;
71914;SDS011;60387;49.994;14.660;2022-11-25T08:14:37;20.03;;;6.70;;
71914;SDS011;60387;49.994;14.660;2022-11-25T08:17:10;15.93;;;5.67;;
71914;SDS011;60387;49.994;14.660;2022-11-25T08:19:43;14.10;;;5.93;;
71914;SDS011;60387;49.994;14.660;2022-11-25T08:22:17;13.00;;;5.73;;
71914;SDS011;60387;49.994;14.660;2022-11-25T08:24:50;17.00;;;4.60;;
71914;SDS011;60387;49.994;14.660;2022-11-25T08:27:23;14.27;;;5.50;;
71914;SDS011;60387;49.994;14.660;2022-11-25T08:29:56;13.20;;;4.90;;
71914;SDS011;60387;49.994;14.660;2022-11-25T08:32:30;11.13;;;4.03;;
71914;SDS011;60387;49.994;14.660;2022-11-25T08:35:03;11.10;;;4.10;;
71914;SDS011;60387;49.994;14.660;2022-11-25T08:37:37;11.77;;;4.82;;
71914;SDS011;60387;49.994;14.660;2022-11-25T08:40:11;12.47;;;4.00;;
71914;SDS011;60387;49.994;14.660;2022-11-25T08:42:44;20.40;;;9.23;;
71914;SDS011;60387;49.994;14.660;2022-11-25T08:45:18;11.75;;;4.47;;
71914;SDS011;60387;49.994;14.660;2022-11-25T08:47:51;10.43;;;3.20;;
71914;SDS011;60387;49.994;14.660;2022-11-25T08:50:24;7.97;;;2.80;;
71914;SDS011;60387;49.994;14.660;2022-11-25T08:52:58;10.80;;;3.00;;
71914;SDS011;60387;49.994;14.660;2022-11-25T08:55:31;12.67;;;4.93;;
71914;SDS011;60387;49.994;14.660;2022-11-25T08:58:05;11.23;;;4.20;;
71914;SDS011;60387;49.994;14.660;2022-11-25T09:00:39;17.50;;;5.60;;
71914;SDS011;60387;49.994;14.660;2022-11-25T09:03:13;9.73;;;3.60;;
71914;SDS011;60387;49.994;14.660;2022-11-25T09:05:46;11.20;;;4.43;;
71914;SDS011;60387;49.994;14.660;2022-11-25T09:08:19;15.80;;;7.27;;
71914;SDS011;60387;49.994;14.660;2022-11-25T09:10:53;13.37;;;4.63;;
71914;SDS011;60387;49.994;14.660;2022-11-25T09:13:26;11.60;;;4.35;;
71914;SDS011;60387;49.994;14.660;2022-11-25T09:15:59;13.60;;;5.03;;
71914;SDS011;60387;49.994;14.660;2022-11-25T09:18:33;14.60;;;7.10;;
71914;SDS011;60387;49.994;14.660;2022-11-25T09:21:07;16.40;;;7.50;;
71914;SDS011;60387;49.994;14.660;2022-11-25T09:23:42;12.10;;;4.80;;
71914;SDS011;60387;49.994;14.660;2022-11-25T09:26:21;13.00;;;5.60;;
71914;SDS011;60387;49.994;14.660;2022-11-25T09:28:56;29.95;;;13.43;;
71914;SDS011;60387;49.994;14.660;2022-11-25T09:31:29;16.73;;;7.53;;
71914;SDS011;60387;49.994;14.660;2022-11-25T09:34:03;22.53;;;7.77;;
71914;SDS011;60387;49.994;14.660;2022-11-25T09:36:36;20.33;;;8.30;;
71914;SDS011;60387;49.994;14.660;2022-11-25T09:39:09;16.70;;;7.60;;
71914;SDS011;60387;49.994;14.660;2022-11-25T09:41:49;16.10;;;5.97;;
71914;SDS011;60387;49.994;14.660;2022-11-25T09:44:30;13.57;;;5.30;;
71914;SDS011;60387;49.994;14.660;2022-11-25T09:47:25;15.98;;;6.30;;
71914;SDS011;60387;49.994;14.660;2022-11-25T09:50:07;12.43;;;4.97;;
71914;SDS011;60387;49.994;14.660;2022-11-25T09:55:25;16.17;;;6.13;;
71914;SDS011;60387;49.994;14.660;2022-11-25T10:01:04;12.20;;;4.78;;
71914;SDS011;60387;49.994;14.660;2022-11-25T10:04:04;16.45;;;6.22;;
71914;SDS011;60387;49.994;14.660;2022-11-25T10:06:47;17.58;;;5.70;;
71914;SDS011;60387;49.994;14.660;2022-11-25T10:09:25;13.60;;;5.00;;
71914;SDS011;60387;49.994;14.660;2022-11-25T10:12:05;13.83;;;5.37;;
71914;SDS011;60387;49.994;14.660;2022-11-25T10:14:52;15.07;;;5.50;;
71914;SDS011;60387;49.994;14.660;2022-11-25T10:17:50;13.88;;;5.05;;
71914;SDS011;60387;49.994;14.660;2022-11-25T10:20:33;14.07;;;4.60;;
71914;SDS011;60387;49.994;14.660;2022-11-25T10:23:11;14.63;;;4.85;;
71914;SDS011;60387;49.994;14.660;2022-11-25T10:25:52;13.53;;;5.20;;
71914;SDS011;60387;49.994;14.660;2022-11-25T10:28:32;10.70;;;4.10;;
71914;SDS011;60387;49.994;14.660;2022-11-25T10:31:48;11.20;;;3.88;;
71914;SDS011;60387;49.994;14.660;2022-11-25T10:34:10;10.13;;;3.42;;
71914;SDS011;60387;49.994;14.660;2022-11-25T10:36:55;11.85;;;4.28;;
71914;SDS011;60387;49.994;14.660;2022-11-25T10:39:33;12.87;;;4.03;;
71914;SDS011;60387;49.994;14.660;2022-11-25T10:42:13;9.65;;;3.47;;
71914;SDS011;60387;49.994;14.660;2022-11-25T10:44:50;9.57;;;2.92;;
71914;SDS011;60387;49.994;14.660;2022-11-25T10:52:55;12.88;;;3.90;;
71914;SDS011;60387;49.994;14.660;2022-11-25T10:55:32;9.85;;;3.92;;
71914;SDS011;60387;49.994;14.660;2022-11-25T10:58:26;11.13;;;4.33;;
71914;SDS011;60387;49.994;14.660;2022-11-25T11:04:11;10.43;;;4.05;;
71914;SDS011;60387;49.994;14.660;2022-11-25T11:06:47;9.85;;;3.63;;
71914;SDS011;60387;49.994;14.660;2022-11-25T11:12:12;10.67;;;3.73;;
71914;SDS011;60387;49.994;14.660;2022-11-25T11:14:52;9.15;;;3.28;;
71914;SDS011;60387;49.994;14.660;2022-11-25T11:17:30;9.60;;;3.10;;
71914;SDS011;60387;49.994;14.660;2022-11-25T11:22:46;9.93;;;3.33;;
71914;SDS011;60387;49.994;14.660;2022-11-25T11:25:31;11.15;;;3.70;;
71914;SDS011;60387;49.994;14.660;2022-11-25T11:33:42;20.05;;;8.65;;
71914;SDS011;60387;49.994;14.660;2022-11-25T11:41:59;8.67;;;2.80;;
71914;SDS011;60387;49.994;14.660;2022-11-25T11:50:30;10.38;;;3.50;;
71914;SDS011;60387;49.994;14.660;2022-11-25T11:58:33;10.05;;;3.80;;
71914;SDS011;60387;49.994;14.660;2022-11-25T12:01:26;11.27;;;4.53;;
71914;SDS011;60387;49.994;14.660;2022-11-25T12:04:25;11.27;;;4.15;;
71914;SDS011;60387;49.994;14.660;2022-11-25T12:07:25;11.20;;;3.75;;
71914;SDS011;60387;49.994;14.660;2022-11-25T12:10:21;10.17;;;3.97;;
71914;SDS011;60387;49.994;14.660;2022-11-25T12:16:04;12.15;;;3.72;;
71914;SDS011;60387;49.994;14.660;2022-11-25T12:21:35;13.82;;;3.63;;
71914;SDS011;60387;49.994;14.660;2022-11-25T12:37:43;11.23;;;3.47;;
71914;SDS011;60387;49.994;14.660;2022-11-25T12:43:23;9.25;;;3.42;;
71914;SDS011;60387;49.994;14.660;2022-11-25T12:49:40;10.43;;;3.20;;
71914;SDS011;60387;49.994;14.660;2022-11-25T13:09:53;10.53;;;2.63;;
71914;SDS011;60387;49.994;14.660;2022-11-25T13:18:02;9.82;;;2.72;;
71914;SDS011;60387;49.994;14.660;2022-11-25T13:25:52;8.35;;;2.40;;
71914;SDS011;60387;49.994;14.660;2022-11-25T13:28:45;7.27;;;1.97;;
71914;SDS011;60387;49.994;14.660;2022-11-25T13:34:01;8.00;;;2.37;;
71914;SDS011;60387;49.994;14.660;2022-11-25T13:36:42;9.43;;;2.67;;
71914;SDS011;60387;49.994;14.660;2022-11-25T13:39:35;6.55;;;2.47;;
71914;SDS011;60387;49.994;14.660;2022-11-25T13:42:24;8.65;;;2.22;;
71914;SDS011;60387;49.994;14.660;2022-11-25T13:44:58;11.27;;;2.80;;
71914;SDS011;60387;49.994;14.660;2022-11-25T13:47:43;9.17;;;2.60;;
71914;SDS011;60387;49.994;14.660;2022-11-25T13:50:21;5.78;;;1.88;;
71914;SDS011;60387;49.994;14.660;2022-11-25T13:52:57;9.93;;;2.00;;
71914;SDS011;60387;49.994;14.660;2022-11-25T13:55:35;10.70;;;2.45;;
71914;SDS011;60387;49.994;14.660;2022-11-25T14:03:56;11.90;;;3.13;;
71914;SDS011;60387;49.994;14.660;2022-11-25T14:09:16;7.18;;;2.05;;
71914;SDS011;60387;49.994;14.660;2022-11-25T14:12:39;13.63;;;3.13;;
71914;SDS011;60387;49.994;14.660;2022-11-25T14:26:09;13.10;;;3.10;;
71914;SDS011;60387;49.994;14.660;2022-11-25T14:28:54;9.03;;;2.73;;
71914;SDS011;60387;49.994;14.660;2022-11-25T14:31:35;9.57;;;2.97;;
71914;SDS011;60387;49.994;14.660;2022-11-25T14:34:19;10.00;;;2.60;;
71914;SDS011;60387;49.994;14.660;2022-11-25T14:36:59;9.45;;;2.55;;
71914;SDS011;60387;49.994;14.660;2022-11-25T14:39:53;11.02;;;2.92;;
71914;SDS011;60387;49.994;14.660;2022-11-25T14:42:37;9.50;;;3.10;;
71914;SDS011;60387;49.994;14.660;2022-11-25T14:47:53;11.43;;;3.10;;
71914;SDS011;60387;49.994;14.660;2022-11-25T14:50:27;13.63;;;3.53;;
71914;SDS011;60387;49.994;14.660;2022-11-25T14:53:03;12.13;;;4.43;;
71914;SDS011;60387;49.994;14.660;2022-11-25T14:55:38;15.60;;;4.50;;
71914;SDS011;60387;49.994;14.660;2022-11-25T14:58:12;11.70;;;4.03;;
71914;SDS011;60387;49.994;14.660;2022-11-25T15:00:49;12.27;;;4.07;;
71914;SDS011;60387;49.994;14.660;2022-11-25T15:03:33;35.35;;;13.70;;
71914;SDS011;60387;49.994;14.660;2022-11-25T15:06:09;30.07;;;9.77;;
71914;SDS011;60387;49.994;14.660;2022-11-25T15:08:45;107.03;;;39.42;;
71914;SDS011;60387;49.994;14.660;2022-11-25T15:11:30;64.00;;;23.90;;
71914;SDS011;60387;49.994;14.660;2022-11-25T15:14:10;74.88;;;26.73;;
71914;SDS011;60387;49.994;14.660;2022-11-25T15:16:54;69.83;;;24.47;;
71914;SDS011;60387;49.994;14.660;2022-11-25T15:19:30;33.83;;;14.18;;
71914;SDS011;60387;49.994;14.660;2022-11-25T15:22:05;15.10;;;5.93;;
71914;SDS011;60387;49.994;14.660;2022-11-25T15:24:43;13.50;;;5.57;;
71914;SDS011;60387;49.994;14.660;2022-11-25T15:27:19;16.90;;;5.68;;
71914;SDS011;60387;49.994;14.660;2022-11-25T15:29:55;17.90;;;5.72;;
71914;SDS011;60387;49.994;14.660;2022-11-25T15:32:31;17.30;;;6.57;;
71914;SDS011;60387;49.994;14.660;2022-11-25T15:35:06;19.20;;;6.50;;
71914;SDS011;60387;49.994;14.660;2022-11-25T15:37:47;22.38;;;7.00;;
71914;SDS011;60387;49.994;14.660;2022-11-25T15:40:28;19.13;;;7.43;;
71914;SDS011;60387;49.994;14.660;2022-11-25T15:43:03;23.35;;;7.88;;
71914;SDS011;60387;49.994;14.660;2022-11-25T15:45:42;27.10;;;10.02;;
71914;SDS011;60387;49.994;14.660;2022-11-25T15:48:25;23.07;;;9.10;;
71914;SDS011;60387;49.994;14.660;2022-11-25T15:51:50;25.13;;;9.30;;
71914;SDS011;60387;49.994;14.660;2022-11-25T16:00:17;26.25;;;11.00;;
71914;SDS011;60387;49.994;14.660;2022-11-25T16:02:53;24.53;;;9.90;;
71914;SDS011;60387;49.994;14.660;2022-11-25T16:05:29;24.25;;;10.15;;
71914;SDS011;60387;49.994;14.660;2022-11-25T16:11:10;25.25;;;10.88;;
71914;SDS011;60387;49.994;14.660;2022-11-25T16:13:44;25.75;;;11.48;;
71914;SDS011;60387;49.994;14.660;2022-11-25T16:16:22;31.27;;;12.63;;
71914;SDS011;60387;49.994;14.660;2022-11-25T16:24:28;31.33;;;11.03;;
71914;SDS011;60387;49.994;14.660;2022-11-25T16:30:15;30.73;;;10.75;;
71914;SDS011;60387;49.994;14.660;2022-11-25T16:32:50;49.33;;;16.30;;
71914;SDS011;60387;49.994;14.660;2022-11-25T16:35:24;45.25;;;16.45;;
71914;SDS011;60387;49.994;14.660;2022-11-25T16:37:57;50.90;;;17.67;;
71914;SDS011;60387;49.994;14.660;2022-11-25T16:40:30;53.88;;;19.95;;
71914;SDS011;60387;49.994;14.660;2022-11-25T16:43:41;62.70;;;25.23;;
71914;SDS011;60387;49.994;14.660;2022-11-25T16:46:09;71.07;;;27.15;;
71914;SDS011;60387;49.994;14.660;2022-11-25T16:48:47;71.22;;;26.35;;
71914;SDS011;60387;49.994;14.660;2022-11-25T16:51:21;74.80;;;28.27;;
71914;SDS011;60387;49.994;14.660;2022-11-25T16:53:56;79.22;;;29.50;;
71914;SDS011;60387;49.994;14.660;2022-11-25T16:56:29;59.53;;;23.13;;
71914;SDS011;60387;49.994;14.660;2022-11-25T16:59:03;50.27;;;17.43;;
71914;SDS011;60387;49.994;14.660;2022-11-25T17:01:36;41.78;;;17.67;;
71914;SDS011;60387;49.994;14.660;2022-11-25T17:04:10;46.37;;;17.40;;
71914;SDS011;60387;49.994;14.660;2022-11-25T17:06:45;48.10;;;17.33;;
71914;SDS011;60387;49.994;14.660;2022-11-25T17:09:18;52.57;;;18.37;;
71914;SDS011;60387;49.994;14.660;2022-11-25T17:11:51;40.47;;;15.63;;
71914;SDS011;60387;49.994;14.660;2022-11-25T17:14:26;51.28;;;17.92;;
71914;SDS011;60387;49.994;14.660;2022-11-25T17:17:02;42.67;;;16.63;;
71914;SDS011;60387;49.994;14.660;2022-11-25T17:19:36;41.20;;;16.77;;
71914;SDS011;60387;49.994;14.660;2022-11-25T17:22:12;46.90;;;18.17;;
71914;SDS011;60387;49.994;14.660;2022-11-25T17:24:49;40.75;;;16.20;;
71914;SDS011;60387;49.994;14.660;2022-11-25T17:27:26;40.03;;;16.47;;
71914;SDS011;60387;49.994;14.660;2022-11-25T17:30:02;49.97;;;17.90;;
71914;SDS011;60387;49.994;14.660;2022-11-25T17:32:37;46.38;;;19.15;;
71914;SDS011;60387;49.994;14.660;2022-11-25T17:35:17;48.97;;;21.77;;
71914;SDS011;60387;49.994;14.660;2022-11-25T17:37:52;51.35;;;22.95;;
71914;SDS011;60387;49.994;14.660;2022-11-25T17:40:25;74.93;;;29.60;;